Springvale, Pennsylvania
Current Conditions -  °F | °C
As of 11:53 AM on Friday 19 Dec 2014 (Local Time) from KTHV Reporting Station
Overcast Overcast  
Wind Chill: 30°   Ceiling: 3300
Heat Index: 38°   Visibility: 10mi
Dew Point: 24°   Wind: 12mph
Humidity: 57%   Direction: 290°WNW
Pressure: 30.1"   Gusts: NA
Location:  39.8974°N, 76.608°W
Report Text: KTHV 191653Z AUTO 29010KT 10SM OVC033 03/M04 A3010 RMK AO2 SLP200 T00331044
Loading
Personal Weather Stations






























Interactive Weather Map New forecast layout! Learn more

10-Day Weather Forecast

Advertisements
Track Severe Weather on mobile